createdAt,value
2019-02-12T00:00:53.422Z,1015.85
2019-02-12T00:01:53.450Z,1015.81
2019-02-12T00:02:53.479Z,1015.82
2019-02-12T00:03:53.505Z,1015.81
2019-02-12T00:04:53.533Z,1015.81
2019-02-12T00:05:53.562Z,1015.85
2019-02-12T00:06:53.590Z,1015.83
2019-02-12T00:07:53.616Z,1015.89
2019-02-12T00:08:53.645Z,1015.90
2019-02-12T00:09:53.673Z,1015.97
2019-02-12T00:10:53.703Z,1015.97
2019-02-12T00:11:53.731Z,1015.94
2019-02-12T00:12:53.756Z,1015.89
2019-02-12T00:13:53.786Z,1015.94
2019-02-12T00:14:53.813Z,1015.91
2019-02-12T00:15:53.840Z,1015.88
2019-02-12T00:16:53.868Z,1015.86
2019-02-12T00:17:53.897Z,1015.94
2019-02-12T00:18:53.934Z,1015.92
2019-02-12T00:19:53.952Z,1015.96
2019-02-12T00:20:53.979Z,1015.91
2019-02-12T00:21:54.007Z,1015.91
2019-02-12T00:22:54.038Z,1015.90
2019-02-12T00:23:54.067Z,1016.01
2019-02-12T00:24:54.092Z,1015.88
2019-02-12T00:25:54.118Z,1015.89
2019-02-12T00:26:54.147Z,1015.95
2019-02-12T00:27:54.180Z,1015.94
2019-02-12T00:28:54.204Z,1015.88
2019-02-12T00:29:54.230Z,1015.87
2019-02-12T00:30:54.258Z,1015.86
2019-02-12T00:31:54.286Z,1015.86
2019-02-12T00:32:54.324Z,1015.87
2019-02-12T00:33:54.341Z,1015.94
2019-02-12T00:34:54.370Z,1015.92
2019-02-12T00:35:54.396Z,1015.91
2019-02-12T00:36:54.424Z,1015.97
2019-02-12T00:37:54.452Z,1015.96
2019-02-12T00:38:54.481Z,1015.92
2019-02-12T00:39:54.507Z,1016.00
2019-02-12T00:40:54.538Z,1016.03
2019-02-12T00:41:54.565Z,1016.05
2019-02-12T00:42:54.595Z,1016.08
2019-02-12T00:43:54.620Z,1016.10
2019-02-12T00:44:54.648Z,1016.12
2019-02-12T00:45:54.676Z,1016.18
2019-02-12T00:46:54.704Z,1016.07
2019-02-12T00:47:54.731Z,1016.10
2019-02-12T00:48:54.759Z,1016.10
2019-02-12T00:49:54.788Z,1016.02
2019-02-12T00:50:54.816Z,1016.07
2019-02-12T00:51:54.848Z,1016.04
2019-02-12T00:52:54.870Z,1016.08
2019-02-12T00:53:54.900Z,1016.02
2019-02-12T00:54:54.934Z,1015.99
2019-02-12T00:55:54.953Z,1016.00
2019-02-12T00:56:54.983Z,1016.00
2019-02-12T00:57:55.009Z,1016.08
2019-02-12T00:58:55.038Z,1016.02
2019-02-12T00:59:55.065Z,1016.10
2019-02-12T01:00:55.097Z,1016.07
2019-02-12T01:01:55.120Z,1016.02
2019-02-12T01:02:55.148Z,1015.89
2019-02-12T01:03:55.176Z,1015.99
2019-02-12T01:04:55.204Z,1016.04
2019-02-12T01:05:55.232Z,1016.03
2019-02-12T01:06:55.261Z,1016.04
2019-02-12T01:07:55.296Z,1016.08
2019-02-12T01:08:55.315Z,1016.03
2019-02-12T01:09:55.343Z,1016.03
2019-02-12T01:10:55.371Z,1016.04
2019-02-12T01:11:55.399Z,1016.05
2019-02-12T01:12:55.437Z,1016.05
2019-02-12T01:13:55.455Z,1016.12
2019-02-12T01:14:55.482Z,1016.16
2019-02-12T01:15:55.509Z,1016.11
2019-02-12T01:16:55.537Z,1016.21
2019-02-12T01:17:55.566Z,1016.23
2019-02-12T01:18:55.602Z,1016.23
2019-02-12T01:19:55.621Z,1016.26
2019-02-12T01:20:55.649Z,1016.32
2019-02-12T01:21:55.677Z,1016.31
2019-02-12T01:22:55.709Z,1016.29
2019-02-12T01:23:55.733Z,1016.30
2019-02-12T01:24:55.760Z,1016.29
2019-02-12T01:25:55.788Z,1016.29
2019-02-12T01:26:55.819Z,1016.28
2019-02-12T01:27:55.847Z,1016.35
2019-02-12T01:28:55.871Z,1016.28
2019-02-12T01:29:55.899Z,1016.44
2019-02-12T01:30:55.926Z,1016.42
2019-02-12T01:31:55.960Z,1016.35
2019-02-12T01:32:55.985Z,1016.36
2019-02-12T01:33:56.010Z,1016.35
2019-02-12T01:34:56.041Z,1016.30
2019-02-12T01:35:56.064Z,1016.33
2019-02-12T01:36:56.093Z,1016.41
2019-02-12T01:37:56.131Z,1016.34
2019-02-12T01:38:56.152Z,1016.44
2019-02-12T01:39:56.175Z,1016.50
2019-02-12T01:40:56.204Z,1016.45
2019-02-12T01:41:56.234Z,1016.48
2019-02-12T01:42:56.258Z,1016.60
2019-02-12T01:43:56.285Z,1016.57
2019-02-12T01:44:56.330Z,1016.51
2019-02-12T01:45:56.343Z,1016.48
2019-02-12T01:46:56.369Z,1016.62
2019-02-12T01:47:56.397Z,1016.59
2019-02-12T01:48:56.424Z,1016.62
2019-02-12T01:49:56.453Z,1016.59
2019-02-12T01:50:56.480Z,1016.59
2019-02-12T01:51:56.507Z,1016.55
2019-02-12T01:52:56.539Z,1016.54
2019-02-12T01:53:56.562Z,1016.60
2019-02-12T01:54:56.598Z,1016.62
2019-02-12T01:55:56.618Z,1016.63
2019-02-12T01:56:56.648Z,1016.64
2019-02-12T01:57:56.679Z,1016.57
2019-02-12T01:58:56.704Z,1016.55
2019-02-12T01:59:56.735Z,1016.64
2019-02-12T02:00:56.758Z,1016.70
2019-02-12T02:01:56.790Z,1016.68
2019-02-12T02:02:56.817Z,1016.72
2019-02-12T02:03:56.840Z,1016.72
2019-02-12T02:04:56.868Z,1016.72
2019-02-12T02:05:56.896Z,1016.67
2019-02-12T02:06:56.928Z,1016.64
2019-02-12T02:07:56.953Z,1016.66
2019-02-12T02:08:56.979Z,1016.69
2019-02-12T02:09:57.006Z,1016.73
2019-02-12T02:10:57.035Z,1016.71
2019-02-12T02:11:57.063Z,1016.71
2019-02-12T02:12:57.091Z,1016.72
2019-02-12T02:13:57.118Z,1016.65
2019-02-12T02:14:57.149Z,1016.69
2019-02-12T02:15:57.174Z,1016.72
2019-02-12T02:16:57.201Z,1016.70
2019-02-12T02:17:57.229Z,1016.63
2019-02-12T02:18:57.258Z,1016.70
2019-02-12T02:19:57.284Z,1016.68
2019-02-12T02:20:57.318Z,1016.69
2019-02-12T02:21:57.340Z,1016.71
2019-02-12T02:22:57.376Z,1016.75
2019-02-12T02:23:57.395Z,1016.82
2019-02-12T02:24:57.425Z,1016.84
2019-02-12T02:25:57.496Z,1016.91
2019-02-12T02:26:57.479Z,1016.81
2019-02-12T02:27:57.507Z,1016.85
2019-02-12T02:28:57.534Z,1016.90
2019-02-12T02:29:57.563Z,1016.88
2019-02-12T02:30:57.593Z,1016.93
2019-02-12T02:31:57.616Z,1016.85
2019-02-12T02:32:57.645Z,1016.89
2019-02-12T02:34:35.583Z,1016.95
2019-02-12T02:34:57.701Z,1016.99
2019-02-12T02:35:57.728Z,1017.03
2019-02-12T02:36:57.756Z,1016.95
2019-02-12T02:37:57.785Z,1016.97
2019-02-12T02:38:57.813Z,1016.94
2019-02-12T02:39:57.845Z,1016.93
2019-02-12T02:40:57.870Z,1017.00
2019-02-12T02:41:57.897Z,1017.02
2019-02-12T02:42:57.929Z,1017.00
2019-02-12T02:43:57.958Z,1017.00
2019-02-12T02:44:57.982Z,1016.98
2019-02-12T02:45:58.007Z,1016.99
2019-02-12T02:46:58.036Z,1017.01
2019-02-12T02:47:58.066Z,1017.02
2019-02-12T02:48:58.091Z,1017.16
2019-02-12T02:49:58.119Z,1017.00
2019-02-12T02:50:58.151Z,1016.97
2019-02-12T02:51:58.178Z,1017.05
2019-02-12T02:52:58.203Z,1017.05
2019-02-12T02:53:58.230Z,1017.04
2019-02-12T02:54:58.259Z,1017.04
2019-02-12T02:55:58.287Z,1017.14
2019-02-12T02:56:58.314Z,1017.16
2019-02-12T02:57:58.342Z,1017.12
2019-02-12T02:58:58.370Z,1017.15
2019-02-12T02:59:58.395Z,1017.21
2019-02-12T03:00:58.426Z,1017.13
2019-02-12T03:01:58.453Z,1017.32
2019-02-12T03:02:58.481Z,1017.14
2019-02-12T03:03:58.510Z,1017.02
2019-02-12T03:04:58.537Z,1017.04
2019-02-12T03:05:58.564Z,1016.97
2019-02-12T03:06:58.601Z,1016.96
2019-02-12T03:07:58.619Z,1016.93
2019-02-12T03:08:58.661Z,1016.99
2019-02-12T03:09:58.675Z,1016.96
2019-02-12T03:10:58.709Z,1016.94
2019-02-12T03:11:58.733Z,1016.95
2019-02-12T03:12:58.773Z,1017.03
2019-02-12T03:13:58.791Z,1017.01
2019-02-12T03:14:58.819Z,1016.92
2019-02-12T03:15:58.843Z,1016.97
2019-02-12T03:16:58.870Z,1016.97
2019-02-12T03:17:58.901Z,1017.09
2019-02-12T03:18:58.926Z,1017.08
2019-02-12T03:19:58.955Z,1017.06
2019-02-12T03:20:58.984Z,1017.09
2019-02-12T03:22:03.674Z,1017.14
2019-02-12T03:22:59.036Z,1017.14
2019-02-12T03:23:59.063Z,1017.22
2019-02-12T03:24:59.096Z,1017.18
2019-02-12T03:25:59.121Z,1017.24
2019-02-12T03:26:59.148Z,1017.25
2019-02-12T03:27:59.176Z,1017.22
2019-02-12T03:28:59.203Z,1017.32
2019-02-12T03:29:59.238Z,1017.29
2019-02-12T03:30:59.260Z,1017.34
2019-02-12T03:31:59.295Z,1017.37
2019-02-12T03:32:59.315Z,1017.36
2019-02-12T03:33:59.356Z,1017.36
2019-02-12T03:34:59.370Z,1017.39
2019-02-12T03:35:59.396Z,1017.41
2019-02-12T03:36:59.423Z,1017.44
2019-02-12T03:37:59.483Z,1017.39
2019-02-12T03:38:59.479Z,1017.49
2019-02-12T03:39:59.507Z,1017.43
2019-02-12T03:40:59.535Z,1017.52
2019-02-12T03:41:59.561Z,1017.46
2019-02-12T03:42:59.590Z,1017.51
2019-02-12T03:43:59.616Z,1017.49
2019-02-12T03:44:59.644Z,1017.46
2019-02-12T03:45:59.673Z,1017.52
2019-02-12T03:46:59.699Z,1017.49
2019-02-12T03:47:59.727Z,1017.52
2019-02-12T03:48:59.756Z,1017.53
2019-02-12T03:49:59.783Z,1017.57
2019-02-12T03:50:59.809Z,1017.44
2019-02-12T03:51:59.837Z,1017.56
2019-02-12T03:52:59.864Z,1017.53
2019-02-12T03:53:59.892Z,1017.56
2019-02-12T03:54:59.924Z,1017.57
2019-02-12T03:55:59.947Z,1017.62
2019-02-12T03:56:59.975Z,1017.58
2019-02-12T03:58:00.003Z,1017.66
2019-02-12T03:59:00.033Z,1017.61
2019-02-12T04:00:00.058Z,1017.56
2019-02-12T04:01:00.088Z,1017.62
2019-02-12T04:02:00.117Z,1017.57
2019-02-12T04:03:00.141Z,1017.58
2019-02-12T04:04:00.169Z,1017.51
2019-02-12T04:05:00.461Z,1017.56
2019-02-12T04:06:00.224Z,1017.58
2019-02-12T04:07:00.254Z,1017.52
2019-02-12T04:08:00.278Z,1017.58
2019-02-12T04:09:00.307Z,1017.58
2019-02-12T04:10:00.681Z,1017.57
2019-02-12T04:11:00.361Z,1017.56
2019-02-12T04:12:00.390Z,1017.52
2019-02-12T04:13:00.416Z,1017.54
2019-02-12T04:14:00.443Z,1017.52
2019-02-12T04:15:00.471Z,1017.58
2019-02-12T04:16:00.497Z,1017.45
2019-02-12T04:17:00.525Z,1017.53
2019-02-12T04:18:00.554Z,1017.50
2019-02-12T04:19:00.582Z,1017.52
2019-02-12T04:20:00.637Z,1017.62
2019-02-12T04:21:00.635Z,1017.51
2019-02-12T04:22:00.662Z,1017.56
2019-02-12T04:23:00.695Z,1017.52
2019-02-12T04:24:00.719Z,1017.51
2019-02-12T04:25:00.755Z,1017.53
2019-02-12T04:26:00.777Z,1017.55
2019-02-12T04:27:00.805Z,1017.58
2019-02-12T04:28:00.825Z,1017.47
2019-02-12T04:29:00.855Z,1017.47
2019-02-12T04:30:00.881Z,1017.56
2019-02-12T04:31:00.909Z,1017.50
2019-02-12T04:32:00.945Z,1017.41
2019-02-12T04:33:00.963Z,1017.54
2019-02-12T04:34:00.990Z,1017.50
2019-02-12T04:35:01.018Z,1017.55
2019-02-12T04:36:01.044Z,1017.55
2019-02-12T04:37:01.076Z,1017.58
2019-02-12T04:38:01.100Z,1017.61
2019-02-12T04:39:01.128Z,1017.61
2019-02-12T04:40:01.155Z,1017.49
2019-02-12T04:41:01.182Z,1017.60
2019-02-12T04:42:01.211Z,1017.76
2019-02-12T04:43:01.243Z,1017.68
2019-02-12T04:44:01.265Z,1017.67
2019-02-12T04:45:01.310Z,1017.74
2019-02-12T04:46:01.317Z,1017.76
2019-02-12T04:47:01.350Z,1017.76
2019-02-12T04:48:01.374Z,1017.72
2019-02-12T04:49:01.401Z,1017.65
2019-02-12T04:50:01.468Z,1017.70
2019-02-12T04:51:01.458Z,1017.71
2019-02-12T04:52:01.484Z,1017.63
2019-02-12T04:53:01.511Z,1017.69
2019-02-12T04:54:01.540Z,1017.68
2019-02-12T04:55:01.566Z,1017.63
2019-02-12T04:56:01.593Z,1017.61
2019-02-12T04:57:01.620Z,1017.55
2019-02-12T04:58:01.657Z,1017.51
2019-02-12T04:59:01.692Z,1017.57
2019-02-12T05:00:01.702Z,1017.59
2019-02-12T05:01:01.738Z,1017.64
2019-02-12T05:02:01.757Z,1017.63
2019-02-12T05:03:01.785Z,1017.61
2019-02-12T05:04:01.812Z,1017.69
2019-02-12T05:05:01.843Z,1017.65
2019-02-12T05:06:01.867Z,1017.65
2019-02-12T05:07:01.922Z,1017.67
2019-02-12T05:08:01.921Z,1017.60
2019-02-12T05:09:01.950Z,1017.67
2019-02-12T05:10:01.982Z,1017.67
2019-02-12T05:11:02.004Z,1017.71
2019-02-12T05:12:02.035Z,1017.73
2019-02-12T05:13:02.074Z,1017.76
2019-02-12T05:14:02.089Z,1017.80
2019-02-12T05:15:02.115Z,1017.83
2019-02-12T05:16:02.141Z,1017.85
2019-02-12T05:17:02.167Z,1017.84
2019-02-12T05:18:02.199Z,1017.90
2019-02-12T05:19:02.222Z,1017.87
2019-02-12T05:20:02.249Z,1017.88
2019-02-12T05:21:02.294Z,1017.82
2019-02-12T05:22:02.304Z,1017.80
2019-02-12T05:23:02.354Z,1017.85
2019-02-12T05:24:02.359Z,1017.74
2019-02-12T05:25:02.386Z,1017.83
2019-02-12T05:26:02.414Z,1017.74
2019-02-12T05:27:02.443Z,1017.74
2019-02-12T05:28:02.475Z,1017.64
2019-02-12T05:29:02.498Z,1017.65
2019-02-12T05:30:02.524Z,1017.66
2019-02-12T05:31:02.551Z,1017.56
2019-02-12T05:32:02.578Z,1017.76
2019-02-12T05:33:02.606Z,1017.68
2019-02-12T05:34:02.632Z,1017.70
2019-02-12T05:35:02.672Z,1017.75
2019-02-12T05:36:02.685Z,1017.75
2019-02-12T05:37:02.713Z,1017.85
2019-02-12T05:38:02.742Z,1017.87
2019-02-12T05:39:02.769Z,1017.85
2019-02-12T05:40:02.823Z,1017.94
2019-02-12T05:41:02.829Z,1017.96
2019-02-12T05:42:02.850Z,1017.98
2019-02-12T05:43:02.879Z,1018.00
2019-02-12T05:44:02.925Z,1018.08
2019-02-12T05:45:02.930Z,1018.08
2019-02-12T05:46:02.961Z,1018.14
2019-02-12T05:47:02.987Z,1018.13
2019-02-12T05:48:03.013Z,1018.13
2019-02-12T05:49:03.043Z,1018.21
2019-02-12T05:50:03.068Z,1018.15
2019-02-12T05:51:03.101Z,1018.22
2019-02-12T05:52:03.154Z,1018.28
2019-02-12T05:53:03.158Z,1018.36
2019-02-12T05:54:03.177Z,1018.41
2019-02-12T05:55:03.217Z,1018.39
2019-02-12T05:56:03.231Z,1018.42
2019-02-12T05:57:03.259Z,1018.47
2019-02-12T05:58:03.286Z,1018.51
2019-02-12T05:59:03.313Z,1018.48
2019-02-12T06:00:03.347Z,1018.56
2019-02-12T06:01:03.372Z,1018.60
2019-02-12T06:02:03.394Z,1018.63
2019-02-12T06:03:03.423Z,1018.66
2019-02-12T06:04:03.454Z,1018.62
2019-02-12T06:05:03.477Z,1018.67
2019-02-12T06:06:03.505Z,1018.71
2019-02-12T06:07:03.532Z,1018.71
2019-02-12T06:08:03.566Z,1018.73
2019-02-12T06:09:03.589Z,1018.75
2019-02-12T06:10:03.621Z,1018.75
2019-02-12T06:11:03.641Z,1018.82
2019-02-12T06:12:03.671Z,1018.76
2019-02-12T06:13:03.693Z,1018.85
2019-02-12T06:14:03.723Z,1018.92
2019-02-12T06:15:03.751Z,1018.94
2019-02-12T06:16:03.778Z,1019.04
2019-02-12T06:17:03.805Z,1018.93
2019-02-12T06:18:03.834Z,1018.99
2019-02-12T06:19:03.865Z,1019.01
2019-02-12T06:20:03.886Z,1019.05
2019-02-12T06:21:03.915Z,1019.03
2019-02-12T06:22:03.941Z,1019.01
2019-02-12T06:23:04.357Z,1018.99
2019-02-12T06:24:03.998Z,1019.04
2019-02-12T06:25:07.587Z,1019.09
2019-02-12T06:26:04.061Z,1019.10
2019-02-12T06:27:04.080Z,1019.11
2019-02-12T06:28:04.109Z,1019.08
2019-02-12T06:29:04.137Z,1019.12
2019-02-12T06:30:04.163Z,1019.17
2019-02-12T06:31:04.190Z,1019.25
2019-02-12T06:32:04.218Z,1019.26
2019-02-12T06:33:07.649Z,1019.28
2019-02-12T06:34:04.273Z,1019.29
2019-02-12T06:35:04.304Z,1019.31
2019-02-12T06:36:04.335Z,1019.39
2019-02-12T06:37:04.354Z,1019.44
2019-02-12T06:38:04.382Z,1019.49
2019-02-12T06:39:04.409Z,1019.50
2019-02-12T06:40:04.437Z,1019.48
2019-02-12T06:41:04.468Z,1019.48
2019-02-12T06:42:04.492Z,1019.53
2019-02-12T06:43:04.536Z,1019.50
2019-02-12T06:44:04.547Z,1019.53
2019-02-12T06:45:04.575Z,1019.55
2019-02-12T06:46:04.604Z,1019.57
2019-02-12T06:47:04.645Z,1019.56
2019-02-12T06:48:04.657Z,1019.62
2019-02-12T06:49:04.685Z,1019.59
2019-02-12T06:50:04.715Z,1019.63
2019-02-12T06:51:04.743Z,1019.61
2019-02-12T06:52:04.772Z,1019.61
2019-02-12T06:53:12.395Z,1019.57
2019-02-12T06:54:04.827Z,1019.57
2019-02-12T06:55:04.852Z,1019.61
2019-02-12T06:56:04.879Z,1019.57
2019-02-12T06:57:04.907Z,1019.59
2019-02-12T06:58:04.937Z,1019.61
2019-02-12T06:59:04.965Z,1019.59
2019-02-12T07:00:04.991Z,1019.60
2019-02-12T07:01:05.021Z,1019.62
2019-02-12T07:02:05.048Z,1019.65
2019-02-12T07:03:05.076Z,1019.70
2019-02-12T07:04:05.104Z,1019.74
2019-02-12T07:05:05.131Z,1019.77
2019-02-12T07:06:05.158Z,1019.77
2019-02-12T07:07:05.187Z,1019.77
2019-02-12T07:08:05.215Z,1019.83
2019-02-12T07:09:05.243Z,1019.82
2019-02-12T07:10:05.269Z,1019.89
2019-02-12T07:11:05.299Z,1019.89
2019-02-12T07:12:05.330Z,1019.92
2019-02-12T07:13:05.359Z,1019.95
2019-02-12T07:14:05.428Z,1019.94
2019-02-12T07:15:05.409Z,1019.98
2019-02-12T07:16:05.435Z,1020.05
2019-02-12T07:17:05.466Z,1020.08
2019-02-12T07:18:05.498Z,1020.06
2019-02-12T07:19:05.520Z,1020.09
2019-02-12T07:20:05.550Z,1020.13
2019-02-12T07:21:05.575Z,1020.12
2019-02-12T07:22:05.603Z,1020.13
2019-02-12T07:23:05.636Z,1020.04
2019-02-12T07:24:05.675Z,1020.09
2019-02-12T07:25:05.686Z,1020.16
2019-02-12T07:26:05.714Z,1020.17
2019-02-12T07:27:05.742Z,1020.16
2019-02-12T07:28:05.769Z,1020.19
2019-02-12T07:29:05.797Z,1020.21
2019-02-12T07:30:05.826Z,1020.22
2019-02-12T07:31:06.019Z,1020.26
2019-02-12T07:32:05.889Z,1020.19
2019-02-12T07:33:13.183Z,1020.17
2019-02-12T07:34:05.940Z,1020.14
2019-02-12T07:35:05.966Z,1020.21
2019-02-12T07:36:05.994Z,1020.24
2019-02-12T07:37:06.021Z,1020.30
2019-02-12T07:38:06.050Z,1020.32
2019-02-12T07:39:06.078Z,1020.36
2019-02-12T07:40:06.106Z,1020.35
2019-02-12T07:41:06.134Z,1020.38
2019-02-12T07:42:06.161Z,1020.45
2019-02-12T07:43:06.190Z,1020.44
2019-02-12T07:44:06.218Z,1020.44
2019-02-12T07:45:06.258Z,1020.46
2019-02-12T07:46:06.273Z,1020.53
2019-02-12T07:47:06.307Z,1020.49
2019-02-12T07:48:06.333Z,1020.47
2019-02-12T07:49:06.368Z,1020.53
2019-02-12T07:50:06.386Z,1020.54
2019-02-12T07:51:06.419Z,1020.57
2019-02-12T07:52:06.441Z,1020.62
2019-02-12T07:53:06.467Z,1020.63
2019-02-12T07:54:06.500Z,1020.62
2019-02-12T07:55:06.524Z,1020.66
2019-02-12T07:56:06.570Z,1020.62
2019-02-12T07:57:06.588Z,1020.70
2019-02-12T07:58:06.610Z,1020.71
2019-02-12T07:59:06.675Z,1020.70
2019-02-12T08:00:06.692Z,1020.75
2019-02-12T08:01:06.695Z,1020.74
2019-02-12T08:02:06.721Z,1020.77
2019-02-12T08:03:06.750Z,1020.73
2019-02-12T08:04:06.777Z,1020.74
2019-02-12T08:05:06.810Z,1020.75
2019-02-12T08:06:06.849Z,1020.79
2019-02-12T08:07:06.863Z,1020.85
2019-02-12T08:08:06.891Z,1020.83
2019-02-12T08:09:06.918Z,1020.77
2019-02-12T08:10:06.946Z,1020.73
2019-02-12T08:11:06.975Z,1020.79
2019-02-12T08:12:07.002Z,1020.82
2019-02-12T08:13:07.029Z,1020.83
2019-02-12T08:14:07.058Z,1020.77
2019-02-12T08:15:07.086Z,1020.79
2019-02-12T08:16:08.255Z,1020.83
2019-02-12T08:17:07.142Z,1020.84
2019-02-12T08:18:07.170Z,1020.87
2019-02-12T08:19:07.199Z,1020.90
2019-02-12T08:20:07.230Z,1020.94
2019-02-12T08:21:07.254Z,1020.95
2019-02-12T08:22:07.284Z,1020.92
2019-02-12T08:23:07.313Z,1020.98
2019-02-12T08:24:07.341Z,1020.94
2019-02-12T08:25:07.368Z,1020.94
2019-02-12T08:26:07.396Z,1020.97
2019-02-12T08:27:07.426Z,1020.98
2019-02-12T08:28:07.453Z,1020.98
2019-02-12T08:29:07.486Z,1021.01
2019-02-12T08:30:07.510Z,1021.02
2019-02-12T08:31:07.536Z,1020.99
2019-02-12T08:32:07.565Z,1020.99
2019-02-12T08:33:07.602Z,1021.01
2019-02-12T08:34:07.622Z,1021.02
2019-02-12T08:35:07.658Z,1021.01
2019-02-12T08:36:07.677Z,1021.06
2019-02-12T08:37:07.707Z,1021.02
2019-02-12T08:38:07.734Z,1021.09
2019-02-12T08:39:07.770Z,1021.06
2019-02-12T08:40:07.796Z,1021.07
2019-02-12T08:41:07.819Z,1021.04
2019-02-12T08:42:07.848Z,1021.05
2019-02-12T08:43:07.896Z,1021.13
2019-02-12T08:44:07.908Z,1021.14
2019-02-12T08:45:07.941Z,1021.14
2019-02-12T08:46:07.960Z,1021.18
2019-02-12T08:47:08.009Z,1021.19
2019-02-12T08:48:08.017Z,1021.26
2019-02-12T08:49:08.046Z,1021.25
2019-02-12T08:50:08.074Z,1021.27
2019-02-12T08:51:08.107Z,1021.30
2019-02-12T08:52:08.131Z,1021.29
2019-02-12T08:53:08.159Z,1021.26
2019-02-12T08:54:08.195Z,1021.27
2019-02-12T08:55:08.215Z,1021.27
2019-02-12T08:56:08.244Z,1021.33
2019-02-12T08:57:08.272Z,1021.32
2019-02-12T08:58:08.303Z,1021.36
2019-02-12T08:59:08.332Z,1021.34
2019-02-12T09:00:08.362Z,1021.41
2019-02-12T09:01:08.388Z,1021.40
2019-02-12T09:02:08.416Z,1021.42
2019-02-12T09:03:08.444Z,1021.46
2019-02-12T09:04:08.472Z,1021.46
2019-02-12T09:05:08.501Z,1021.48
2019-02-12T09:06:08.542Z,1021.49
2019-02-12T09:07:08.558Z,1021.51
2019-02-12T09:08:08.585Z,1021.54
2019-02-12T09:09:08.616Z,1021.49
2019-02-12T09:10:08.645Z,1021.55
2019-02-12T09:11:08.672Z,1021.55
2019-02-12T09:12:08.701Z,1021.60
2019-02-12T09:13:08.742Z,1021.53
2019-02-12T09:14:08.764Z,1021.55
2019-02-12T09:15:08.788Z,1021.55
2019-02-12T09:16:08.818Z,1021.59
2019-02-12T09:17:08.847Z,1021.57
2019-02-12T09:18:08.874Z,1021.60
2019-02-12T09:19:08.905Z,1021.57
2019-02-12T09:20:08.933Z,1021.59
2019-02-12T09:21:08.962Z,1021.62
2019-02-12T09:22:08.991Z,1021.71
2019-02-12T09:23:09.022Z,1021.79
2019-02-12T09:24:09.050Z,1021.70
2019-02-12T09:25:09.079Z,1021.71
2019-02-12T09:26:09.112Z,1021.73
2019-02-12T09:27:09.160Z,1021.76
2019-02-12T09:28:09.165Z,1021.68
2019-02-12T09:29:09.195Z,1021.71
2019-02-12T09:30:09.230Z,1021.77
2019-02-12T09:31:09.257Z,1021.74
2019-02-12T09:32:09.286Z,1021.74
2019-02-12T09:33:09.314Z,1021.84
2019-02-12T09:34:09.343Z,1021.76
2019-02-12T09:35:09.372Z,1021.77
2019-02-12T09:36:09.404Z,1021.85
2019-02-12T09:37:09.431Z,1021.97
2019-02-12T09:38:09.463Z,1021.92
2019-02-12T09:39:09.492Z,1021.93
2019-02-12T09:40:09.521Z,1021.94
2019-02-12T09:41:09.552Z,1022.00
2019-02-12T09:42:09.581Z,1021.97
2019-02-12T09:43:09.610Z,1022.05
2019-02-12T09:44:09.643Z,1022.07
2019-02-12T09:45:09.681Z,1022.04
2019-02-12T09:46:09.701Z,1022.05
2019-02-12T09:47:09.731Z,1022.12
2019-02-12T09:48:09.766Z,1022.03
2019-02-12T09:49:09.862Z,1022.10
2019-02-12T09:50:09.821Z,1022.13
2019-02-12T09:51:09.853Z,1022.17
2019-02-12T09:52:09.882Z,1022.16
2019-02-12T09:53:09.914Z,1022.13
2019-02-12T09:54:09.941Z,1022.13
2019-02-12T09:55:09.974Z,1022.17
2019-02-12T09:56:10.000Z,1022.13
2019-02-12T09:57:10.032Z,1022.16
2019-02-12T09:58:10.064Z,1022.33
2019-02-12T09:59:10.094Z,1022.26
2019-02-12T10:00:10.121Z,1022.34
2019-02-12T10:01:10.177Z,1022.37
2019-02-12T10:02:10.183Z,1022.37
2019-02-12T10:03:10.215Z,1022.39
2019-02-12T10:04:10.246Z,1022.40
2019-02-12T10:05:10.275Z,1022.43
2019-02-12T10:06:10.311Z,1022.38
2019-02-12T10:07:10.337Z,1022.41
2019-02-12T10:08:10.367Z,1022.33
2019-02-12T10:09:10.399Z,1022.33
2019-02-12T10:10:10.430Z,1022.29
2019-02-12T10:11:10.487Z,1022.23
2019-02-12T10:12:10.488Z,1022.44
2019-02-12T10:13:10.520Z,1022.46
2019-02-12T10:14:10.555Z,1022.43
2019-02-12T10:15:10.584Z,1022.52
2019-02-12T10:16:10.612Z,1022.46
2019-02-12T10:17:10.646Z,1022.43
2019-02-12T10:18:10.675Z,1022.62
2019-02-12T10:19:10.707Z,1022.68
2019-02-12T10:20:10.737Z,1022.59
2019-02-12T10:21:10.769Z,1022.56
2019-02-12T10:22:10.808Z,1022.63
2019-02-12T10:23:10.836Z,1022.67
2019-02-12T10:24:19.419Z,1022.72
2019-02-12T10:25:10.902Z,1022.76
2019-02-12T10:26:10.936Z,1022.76
2019-02-12T10:27:10.970Z,1022.79
2019-02-12T10:28:11.005Z,1022.86
2019-02-12T10:29:11.040Z,1022.90
2019-02-12T10:30:11.075Z,1022.89
2019-02-12T10:31:11.112Z,1022.78
2019-02-12T10:32:11.147Z,1022.79
2019-02-12T10:33:11.184Z,1022.78
2019-02-12T10:34:11.225Z,1022.80
2019-02-12T10:35:11.259Z,1022.73
2019-02-12T10:36:11.294Z,1022.80
2019-02-12T10:37:11.332Z,1022.94
2019-02-12T10:39:11.412Z,1023.03
2019-02-12T10:40:11.458Z,1023.24
2019-02-12T10:41:11.483Z,1023.15
2019-02-12T10:42:11.518Z,1023.17
2019-02-12T10:43:11.555Z,1023.19
2019-02-12T10:44:11.595Z,1023.20
2019-02-12T10:45:11.635Z,1023.25
2019-02-12T10:46:11.671Z,1023.07
2019-02-12T10:47:11.711Z,1023.23
2019-02-12T10:48:11.749Z,1023.18
2019-02-12T10:49:11.788Z,1022.89
2019-02-12T10:50:11.829Z,1023.27
2019-02-12T10:51:11.868Z,1023.25
2019-02-12T10:52:11.912Z,1023.24
2019-02-12T10:53:11.949Z,1023.29
2019-02-12T10:54:13.519Z,1023.22
2019-02-12T10:55:12.032Z,1023.29
2019-02-12T10:56:12.073Z,1023.27
2019-02-12T10:57:12.115Z,1022.77
2019-02-12T10:58:12.157Z,1022.89
2019-02-12T10:59:14.397Z,1023.21
2019-02-12T11:00:12.249Z,1023.28
2019-02-12T11:01:12.287Z,1022.93
2019-02-12T11:02:12.326Z,1022.97
2019-02-12T11:03:12.369Z,1023.27
2019-02-12T11:04:12.410Z,1023.23
2019-02-12T11:05:12.453Z,1023.28
2019-02-12T11:06:12.501Z,1023.20
2019-02-12T11:07:12.539Z,1023.05
2019-02-12T11:08:12.583Z,1022.84
2019-02-12T11:09:12.626Z,1022.86
2019-02-12T11:10:12.670Z,1023.27
2019-02-12T11:11:12.711Z,1022.83
2019-02-12T11:12:12.754Z,1022.81
2019-02-12T11:13:12.798Z,1022.88
2019-02-12T11:14:12.843Z,1023.00
2019-02-12T11:15:12.885Z,1022.87
2019-02-12T11:16:12.928Z,1022.91
2019-02-12T11:17:12.971Z,1022.87
2019-02-12T11:18:13.022Z,1022.86
2019-02-12T11:19:13.058Z,1022.98
2019-02-12T11:20:13.099Z,1023.13
2019-02-12T11:21:13.142Z,1022.99
2019-02-12T11:22:13.191Z,1022.92
2019-02-12T11:23:13.224Z,1023.03
2019-02-12T11:24:13.265Z,1022.99
2019-02-12T11:25:13.306Z,1022.95
2019-02-12T11:26:13.347Z,1022.96
2019-02-12T11:27:13.388Z,1023.36
2019-02-12T11:28:13.426Z,1023.33
2019-02-12T11:29:13.468Z,1023.32
2019-02-12T11:30:13.508Z,1023.16
2019-02-12T11:31:13.550Z,1022.95
2019-02-12T11:32:13.587Z,1022.93
2019-02-12T11:33:13.633Z,1022.96
2019-02-12T11:34:13.962Z,1022.99
2019-02-12T11:35:13.708Z,1023.08
2019-02-12T11:36:13.746Z,1022.99
2019-02-12T11:37:13.790Z,1022.95
2019-02-12T11:38:13.826Z,1023.34
2019-02-12T11:39:13.865Z,1022.96
2019-02-12T11:40:13.916Z,1022.99
2019-02-12T11:41:13.944Z,1022.97
2019-02-12T11:42:13.986Z,1022.96
2019-02-12T11:43:14.022Z,1022.98
2019-02-12T11:44:14.060Z,1022.97
2019-02-12T11:45:14.099Z,1023.07
2019-02-12T11:46:14.136Z,1023.40
2019-02-12T11:47:14.177Z,1023.42
2019-02-12T11:48:14.213Z,1023.13
2019-02-12T11:49:14.251Z,1023.38
2019-02-12T11:50:14.290Z,1023.38
2019-02-12T11:51:14.335Z,1023.41
2019-02-12T11:52:14.367Z,1023.43
2019-02-12T11:53:14.403Z,1023.40
2019-02-12T11:54:14.440Z,1023.42
2019-02-12T11:55:14.478Z,1023.45
2019-02-12T11:56:14.516Z,1023.49
2019-02-12T11:57:15.838Z,1023.55
2019-02-12T11:58:14.593Z,1023.54
2019-02-12T11:59:14.629Z,1023.44
2019-02-12T12:00:14.667Z,1023.49
2019-02-12T12:01:14.705Z,1023.44
2019-02-12T12:02:14.745Z,1023.30
2019-02-12T12:03:14.783Z,1023.27
2019-02-12T12:04:14.818Z,1023.30
2019-02-12T12:05:14.859Z,1023.21
2019-02-12T12:06:14.893Z,1023.24
2019-02-12T12:07:14.934Z,1023.19